createdAt,value
2023-02-25T16:23:30.209Z,6.80
2023-02-25T16:29:12.627Z,7.00
2023-02-25T16:35:41.557Z,6.70
2023-02-25T16:41:59.295Z,7.60
2023-02-25T16:48:01.114Z,6.80
2023-02-25T16:53:58.256Z,6.00
2023-02-25T17:00:23.263Z,8.10
2023-02-25T17:19:23.007Z,8.40
2023-02-25T17:24:35.808Z,8.80
2023-02-25T17:30:05.623Z,9.90
2023-02-25T17:35:09.527Z,10.60
2023-02-25T17:40:21.657Z,11.30
2023-02-25T17:46:28.210Z,10.60
2023-02-25T17:51:57.839Z,8.30
2023-02-25T17:57:06.749Z,7.80
2023-02-25T18:02:32.991Z,8.60
2023-02-25T18:07:38.188Z,9.10
2023-02-25T18:12:47.884Z,7.90
2023-02-25T18:17:56.322Z,7.70
2023-02-25T18:23:05.195Z,8.10
2023-02-25T18:28:20.214Z,9.70
2023-02-25T18:33:31.639Z,9.80
2023-02-25T18:39:02.000Z,10.90
2023-02-25T18:44:14.311Z,11.00
2023-02-25T18:54:44.514Z,11.10
2023-02-25T19:00:32.180Z,10.40
2023-02-25T19:05:58.255Z,9.90
2023-02-25T19:11:24.871Z,11.30
2023-02-25T19:16:42.899Z,9.50
2023-02-25T19:21:47.871Z,7.30
2023-02-25T19:26:51.076Z,7.00
2023-02-25T19:32:19.246Z,5.60
2023-02-25T19:37:23.065Z,5.40
2023-02-25T19:42:29.570Z,6.30
2023-02-25T19:47:49.498Z,5.30
2023-02-25T19:52:54.432Z,4.90
2023-02-25T19:58:07.966Z,4.50
2023-02-25T20:03:11.851Z,4.90
2023-02-25T20:08:16.757Z,7.60
2023-02-25T20:13:20.242Z,9.20
2023-02-25T20:18:23.418Z,7.80
2023-02-25T20:23:29.274Z,5.80
2023-02-25T20:28:32.980Z,5.10
2023-02-25T20:34:10.224Z,4.70
2023-02-25T20:40:30.704Z,6.20
2023-02-25T20:46:00.993Z,5.10
2023-02-25T20:51:40.501Z,4.90
2023-02-25T20:56:47.170Z,4.30
2023-02-25T21:02:01.994Z,4.60
2023-02-25T21:07:25.530Z,5.70
2023-02-25T21:12:46.061Z,5.50
2023-02-25T21:18:13.033Z,4.30
2023-02-25T21:23:41.263Z,4.80
2023-02-25T21:28:47.606Z,4.40
2023-02-25T21:33:51.274Z,4.20
2023-02-25T21:38:56.993Z,4.70
2023-02-25T21:44:03.212Z,5.00
2023-02-25T21:49:06.610Z,4.90
2023-02-25T21:54:14.268Z,4.60
2023-02-25T21:59:37.814Z,4.90
2023-02-25T22:04:41.169Z,4.50
2023-02-25T22:09:44.358Z,4.60
2023-02-25T22:14:47.799Z,4.80
2023-02-25T22:19:51.115Z,5.00
2023-02-25T22:25:05.506Z,5.00
2023-02-25T22:30:09.224Z,4.20
2023-02-25T22:35:12.563Z,4.90
2023-02-25T22:40:18.610Z,5.00
2023-02-25T22:45:22.084Z,4.90
2023-02-25T22:50:29.203Z,4.40
2023-02-25T22:55:33.959Z,4.40
2023-02-25T23:00:42.263Z,4.30
2023-02-25T23:05:45.632Z,4.30
2023-02-25T23:10:49.887Z,4.30
2023-02-25T23:16:04.897Z,4.00
2023-02-25T23:21:12.413Z,4.10
2023-02-25T23:26:18.643Z,3.90
2023-02-25T23:31:59.268Z,3.90
2023-02-25T23:37:13.817Z,4.30
2023-02-25T23:43:09.884Z,4.10
2023-02-25T23:48:16.486Z,3.90
2023-02-25T23:53:30.418Z,4.00
2023-02-25T23:58:57.090Z,4.20
